createdAt,value
2023-11-07T00:00:07.778Z,6.29
2023-11-07T00:00:17.735Z,6.27
2023-11-07T00:00:27.737Z,6.29
2023-11-07T00:00:37.733Z,6.27
2023-11-07T00:00:47.739Z,6.29
2023-11-07T00:00:57.734Z,6.27
2023-11-07T00:01:07.763Z,6.29
2023-11-07T00:01:27.742Z,6.29
2023-11-07T00:01:37.740Z,6.29
2023-11-07T00:01:47.743Z,6.29
2023-11-07T00:01:57.755Z,6.29
2023-11-07T00:02:07.798Z,6.29
2023-11-07T00:02:17.747Z,6.29
2023-11-07T00:02:27.787Z,6.30
2023-11-07T00:02:37.915Z,6.29
2023-11-07T00:02:47.787Z,6.29
2023-11-07T00:02:57.828Z,6.29
2023-11-07T00:03:07.918Z,6.29
2023-11-07T00:03:17.968Z,6.29
2023-11-07T00:03:27.860Z,6.30
2023-11-07T00:03:47.860Z,6.29
2023-11-07T00:03:57.900Z,6.30
2023-11-07T00:04:07.845Z,6.29
2023-11-07T00:04:17.769Z,6.29
2023-11-07T00:04:27.774Z,6.27
2023-11-07T00:04:37.754Z,6.29
2023-11-07T00:04:47.763Z,6.29
2023-11-07T00:04:57.795Z,6.27
2023-11-07T00:05:07.786Z,6.29
2023-11-07T00:05:17.771Z,6.27
2023-11-07T00:05:37.989Z,6.29
2023-11-07T00:05:47.865Z,6.29
2023-11-07T00:05:57.868Z,6.27
2023-11-07T00:06:07.831Z,6.27
2023-11-07T00:06:17.824Z,6.27
2023-11-07T00:06:27.784Z,6.29
2023-11-07T00:06:37.810Z,6.27
2023-11-07T00:06:47.757Z,6.27
2023-11-07T00:06:57.760Z,6.27
2023-11-07T00:07:07.756Z,6.26
2023-11-07T00:07:17.795Z,6.26
2023-11-07T00:07:27.782Z,6.26
2023-11-07T00:07:37.956Z,6.26
2023-11-07T00:07:47.777Z,6.26
2023-11-07T00:07:57.773Z,6.26
2023-11-07T00:08:07.851Z,6.26
2023-11-07T00:08:17.768Z,6.26
2023-11-07T00:08:27.806Z,6.26
2023-11-07T00:08:37.812Z,6.26
2023-11-07T00:08:57.791Z,6.26
2023-11-07T00:09:07.855Z,6.27
2023-11-07T00:09:17.769Z,6.26
2023-11-07T00:09:27.782Z,6.27
2023-11-07T00:09:37.794Z,6.27
2023-11-07T00:09:47.776Z,6.26
2023-11-07T00:09:57.775Z,6.26
2023-11-07T00:10:17.779Z,6.27
2023-11-07T00:10:27.776Z,6.26
2023-11-07T00:10:37.780Z,6.26
2023-11-07T00:10:47.773Z,6.24
2023-11-07T00:10:57.777Z,6.24
2023-11-07T00:11:07.821Z,6.24
2023-11-07T00:11:17.783Z,6.24
2023-11-07T00:11:27.802Z,6.24
2023-11-07T00:11:37.840Z,6.26
2023-11-07T00:11:47.903Z,6.24
2023-11-07T00:11:57.828Z,6.24
2023-11-07T00:12:07.822Z,6.26
2023-11-07T00:12:17.782Z,6.24
2023-11-07T00:12:27.796Z,6.26
2023-11-07T00:12:37.815Z,6.26
2023-11-07T00:12:47.798Z,6.24
2023-11-07T00:12:57.860Z,6.24
2023-11-07T00:13:07.823Z,6.22
2023-11-07T00:13:17.783Z,6.24
2023-11-07T00:13:37.850Z,6.24
2023-11-07T00:13:47.786Z,6.22
2023-11-07T00:13:57.790Z,6.22
2023-11-07T00:14:07.846Z,6.22
2023-11-07T00:14:17.785Z,6.24
2023-11-07T00:14:27.844Z,6.24
2023-11-07T00:14:37.872Z,6.22
2023-11-07T00:14:47.818Z,6.22
2023-11-07T00:14:57.850Z,6.21
2023-11-07T00:15:07.866Z,6.22
2023-11-07T00:15:17.791Z,6.22
2023-11-07T00:15:27.798Z,6.22
2023-11-07T00:15:37.791Z,6.22
2023-11-07T00:15:47.802Z,6.22
2023-11-07T00:15:57.807Z,6.24
2023-11-07T00:16:07.792Z,6.22
2023-11-07T00:16:17.806Z,6.22
2023-11-07T00:16:27.797Z,6.22
2023-11-07T00:16:38.106Z,6.22
2023-11-07T00:16:47.806Z,6.22
2023-11-07T00:16:57.814Z,6.22
2023-11-07T00:17:07.879Z,6.21
2023-11-07T00:17:17.800Z,6.21
2023-11-07T00:17:27.846Z,6.21
2023-11-07T00:17:38.074Z,6.21
2023-11-07T00:17:47.936Z,6.22
2023-11-07T00:17:57.882Z,6.22
2023-11-07T00:18:07.948Z,6.22
2023-11-07T00:18:17.990Z,6.21
2023-11-07T00:18:28.019Z,6.21
2023-11-07T00:18:38.087Z,6.21
2023-11-07T00:18:58.039Z,6.21
2023-11-07T00:19:07.997Z,6.19
2023-11-07T00:19:17.857Z,6.21
2023-11-07T00:19:27.854Z,6.22
2023-11-07T00:19:37.917Z,6.22
2023-11-07T00:19:47.828Z,6.21
2023-11-07T00:19:57.922Z,6.21
2023-11-07T00:20:07.928Z,6.19
2023-11-07T00:20:17.825Z,6.21
2023-11-07T00:20:27.847Z,6.19
2023-11-07T00:20:37.866Z,6.19
2023-11-07T00:20:47.827Z,6.19
2023-11-07T00:20:57.878Z,6.21
2023-11-07T00:21:07.897Z,6.19
2023-11-07T00:21:17.836Z,6.22
2023-11-07T00:21:27.831Z,6.19
2023-11-07T00:21:37.834Z,6.19
2023-11-07T00:21:47.825Z,6.19
2023-11-07T00:22:07.896Z,6.22
2023-11-07T00:22:17.872Z,6.21
2023-11-07T00:22:27.831Z,6.22
2023-11-07T00:22:37.965Z,6.22
2023-11-07T00:22:47.848Z,6.21
2023-11-07T00:22:57.844Z,6.19
2023-11-07T00:23:07.897Z,6.21
2023-11-07T00:23:17.834Z,6.21
2023-11-07T00:23:27.909Z,6.21
2023-11-07T00:23:37.858Z,6.21
2023-11-07T00:23:57.863Z,6.21
2023-11-07T00:24:07.935Z,6.21
2023-11-07T00:24:17.841Z,6.22
2023-11-07T00:24:27.847Z,6.24
2023-11-07T00:24:37.899Z,6.22
2023-11-07T00:24:47.849Z,6.22
2023-11-07T00:24:57.843Z,6.21
2023-11-07T00:25:07.923Z,6.21
2023-11-07T00:25:17.891Z,6.22
2023-11-07T00:25:37.880Z,6.22
2023-11-07T00:25:47.853Z,6.21
2023-11-07T00:25:57.869Z,6.19
2023-11-07T00:26:07.846Z,6.21
2023-11-07T00:26:17.850Z,6.19
2023-11-07T00:26:27.886Z,6.19
2023-11-07T00:26:37.911Z,6.21
2023-11-07T00:26:47.937Z,6.21
2023-11-07T00:26:57.880Z,6.19
2023-11-07T00:27:07.901Z,6.21
2023-11-07T00:27:17.857Z,6.21
2023-11-07T00:27:27.864Z,6.21
2023-11-07T00:27:37.876Z,6.21
2023-11-07T00:27:47.886Z,6.21
2023-11-07T00:27:57.862Z,6.21
2023-11-07T00:28:07.865Z,6.22
2023-11-07T00:28:17.939Z,6.19
2023-11-07T00:28:27.875Z,6.21
2023-11-07T00:28:37.877Z,6.19
2023-11-07T00:28:57.868Z,6.19
2023-11-07T00:29:07.913Z,6.19
2023-11-07T00:29:17.860Z,6.21
2023-11-07T00:29:27.886Z,6.19
2023-11-07T00:29:37.895Z,6.19
2023-11-07T00:29:47.889Z,6.18
2023-11-07T00:29:57.913Z,6.18
2023-11-07T00:30:17.881Z,6.19
2023-11-07T00:30:27.869Z,6.19
2023-11-07T00:30:37.917Z,6.19
2023-11-07T00:30:47.869Z,6.18
2023-11-07T00:30:57.876Z,6.19
2023-11-07T00:31:07.878Z,6.19
2023-11-07T00:31:17.868Z,6.19
2023-11-07T00:31:27.872Z,6.19
2023-11-07T00:31:37.874Z,6.19
2023-11-07T00:31:47.881Z,6.18
2023-11-07T00:31:57.895Z,6.19
2023-11-07T00:32:07.884Z,6.21
2023-11-07T00:32:17.885Z,6.19
2023-11-07T00:32:27.957Z,6.18
2023-11-07T00:32:37.984Z,6.19
2023-11-07T00:32:47.974Z,6.18
2023-11-07T00:32:57.939Z,6.19
2023-11-07T00:33:07.999Z,6.18
2023-11-07T00:33:17.994Z,6.18
2023-11-07T00:33:28.101Z,6.18
2023-11-07T00:33:38.118Z,6.19
2023-11-07T00:33:58.047Z,6.19
2023-11-07T00:34:08.062Z,6.18
2023-11-07T00:34:17.924Z,6.18
2023-11-07T00:34:27.935Z,6.16
2023-11-07T00:34:37.938Z,6.18
2023-11-07T00:34:47.881Z,6.19
2023-11-07T00:34:57.907Z,6.18
2023-11-07T00:35:07.894Z,6.16
2023-11-07T00:35:17.894Z,6.18
2023-11-07T00:35:27.983Z,6.15
2023-11-07T00:35:47.924Z,6.15
2023-11-07T00:35:57.930Z,6.16
2023-11-07T00:36:07.972Z,6.15
2023-11-07T00:36:17.908Z,6.15
2023-11-07T00:36:27.894Z,6.16
2023-11-07T00:36:37.959Z,6.15
2023-11-07T00:36:47.932Z,6.15
2023-11-07T00:36:57.915Z,6.16
2023-11-07T00:37:07.932Z,6.18
2023-11-07T00:37:17.906Z,6.16
2023-11-07T00:37:27.902Z,6.18
2023-11-07T00:37:37.928Z,6.16
2023-11-07T00:37:47.927Z,6.16
2023-11-07T00:37:57.904Z,6.16
2023-11-07T00:38:07.929Z,6.15
2023-11-07T00:38:17.906Z,6.15
2023-11-07T00:38:27.913Z,6.15
2023-11-07T00:38:37.946Z,6.15
2023-11-07T00:38:57.937Z,6.13
2023-11-07T00:39:07.995Z,6.16
2023-11-07T00:39:17.910Z,6.13
2023-11-07T00:39:27.914Z,6.16
2023-11-07T00:39:37.987Z,6.15
2023-11-07T00:39:47.915Z,6.13
2023-11-07T00:39:57.916Z,6.15
2023-11-07T00:40:07.907Z,6.15
2023-11-07T00:40:17.909Z,6.15
2023-11-07T00:40:37.942Z,6.15
2023-11-07T00:40:47.921Z,6.16
2023-11-07T00:40:57.986Z,6.15
2023-11-07T00:41:08.025Z,6.13
2023-11-07T00:41:17.916Z,6.15
2023-11-07T00:41:27.950Z,6.15
2023-11-07T00:41:47.966Z,6.16
2023-11-07T00:41:57.984Z,6.13
2023-11-07T00:42:07.919Z,6.15
2023-11-07T00:42:17.924Z,6.13
2023-11-07T00:42:27.936Z,6.15
2023-11-07T00:42:37.919Z,6.13
2023-11-07T00:42:47.939Z,6.15
2023-11-07T00:42:57.920Z,6.15
2023-11-07T00:43:07.935Z,6.15
2023-11-07T00:43:17.931Z,6.15
2023-11-07T00:43:27.926Z,6.16
2023-11-07T00:43:37.965Z,6.15
2023-11-07T00:43:57.930Z,6.15
2023-11-07T00:44:07.991Z,6.15
2023-11-07T00:44:17.934Z,6.15
2023-11-07T00:44:27.973Z,6.15
2023-11-07T00:44:37.957Z,6.16
2023-11-07T00:44:47.941Z,6.15
2023-11-07T00:44:57.956Z,6.15
2023-11-07T00:45:07.978Z,6.13
2023-11-07T00:45:17.954Z,6.11
2023-11-07T00:45:27.932Z,6.13
2023-11-07T00:45:37.936Z,6.13
2023-11-07T00:45:47.939Z,6.13
2023-11-07T00:45:57.934Z,6.11
2023-11-07T00:46:07.940Z,6.11
2023-11-07T00:46:17.958Z,6.11
2023-11-07T00:46:27.938Z,6.13
2023-11-07T00:46:37.937Z,6.13
2023-11-07T00:46:47.937Z,6.11
2023-11-07T00:46:57.938Z,6.11
2023-11-07T00:47:07.936Z,6.13
2023-11-07T00:47:17.956Z,6.11
2023-11-07T00:47:27.979Z,6.11
2023-11-07T00:47:38.261Z,6.13
2023-11-07T00:47:48.197Z,6.11
2023-11-07T00:47:58.039Z,6.13
2023-11-07T00:48:08.079Z,6.11
2023-11-07T00:48:18.015Z,6.13
2023-11-07T00:48:28.060Z,6.13
2023-11-07T00:48:38.198Z,6.13
2023-11-07T00:48:48.027Z,6.13
2023-11-07T00:48:58.029Z,6.13
2023-11-07T00:49:08.208Z,6.13
2023-11-07T00:49:18.045Z,6.13
2023-11-07T00:49:27.962Z,6.15
2023-11-07T00:49:37.971Z,6.13
2023-11-07T00:49:57.970Z,6.13
2023-11-07T00:50:07.964Z,6.15
2023-11-07T00:50:17.959Z,6.13
2023-11-07T00:50:27.987Z,6.15
2023-11-07T00:50:38.048Z,6.15
2023-11-07T00:50:48.047Z,6.15
2023-11-07T00:50:57.991Z,6.13
2023-11-07T00:51:07.976Z,6.13
2023-11-07T00:51:27.965Z,6.13
2023-11-07T00:51:37.965Z,6.13
2023-11-07T00:51:47.965Z,6.13
2023-11-07T00:51:57.975Z,6.13
2023-11-07T00:52:07.970Z,6.13
2023-11-07T00:52:17.965Z,6.13
2023-11-07T00:52:27.969Z,6.13
2023-11-07T00:52:38.007Z,6.11
2023-11-07T00:52:48.022Z,6.13
2023-11-07T00:52:57.982Z,6.11
2023-11-07T00:53:07.969Z,6.13
2023-11-07T00:53:17.976Z,6.11
2023-11-07T00:53:28.018Z,6.13
2023-11-07T00:53:38.095Z,6.11
2023-11-07T00:53:58.006Z,6.11
2023-11-07T00:54:07.998Z,6.10
2023-11-07T00:54:17.980Z,6.13
2023-11-07T00:54:27.979Z,6.10
2023-11-07T00:54:37.980Z,6.10
2023-11-07T00:54:47.982Z,6.11
2023-11-07T00:54:57.977Z,6.11
2023-11-07T00:55:08.038Z,6.13
2023-11-07T00:55:17.981Z,6.11
2023-11-07T00:55:27.994Z,6.11
2023-11-07T00:55:37.978Z,6.11
2023-11-07T00:55:47.991Z,6.11
2023-11-07T00:55:57.990Z,6.13
2023-11-07T00:56:07.984Z,6.10
2023-11-07T00:56:18.651Z,6.11
2023-11-07T00:56:28.010Z,6.11
2023-11-07T00:56:48.028Z,6.13
2023-11-07T00:56:58.033Z,6.13
2023-11-07T00:57:07.990Z,6.11
2023-11-07T00:57:17.987Z,6.13
2023-11-07T00:57:27.992Z,6.11
2023-11-07T00:57:37.987Z,6.11
2023-11-07T00:57:47.996Z,6.13
2023-11-07T00:57:58.008Z,6.13
2023-11-07T00:58:08.003Z,6.11
2023-11-07T00:58:18.007Z,6.11
2023-11-07T00:58:38.009Z,6.13
2023-11-07T00:58:48.002Z,6.11
2023-11-07T00:58:57.996Z,6.15
2023-11-07T00:59:07.998Z,6.13
2023-11-07T00:59:18.000Z,6.13
2023-11-07T00:59:28.010Z,6.13
2023-11-07T00:59:38.023Z,6.11
2023-11-07T00:59:48.022Z,6.13
2023-11-07T00:59:58.027Z,6.13
2023-11-07T01:00:08.053Z,6.13
2023-11-07T01:00:18.011Z,6.11
2023-11-07T01:00:28.006Z,6.11
2023-11-07T01:00:38.014Z,6.13
2023-11-07T01:00:58.000Z,6.11
2023-11-07T01:01:08.064Z,6.13
2023-11-07T01:01:18.014Z,6.13
2023-11-07T01:01:28.024Z,6.13
2023-11-07T01:01:38.003Z,6.11
2023-11-07T01:01:48.006Z,6.13
2023-11-07T01:01:58.039Z,6.13
2023-11-07T01:02:08.009Z,6.11
2023-11-07T01:02:18.018Z,6.11
2023-11-07T01:02:28.065Z,6.11
2023-11-07T01:02:38.175Z,6.13
2023-11-07T01:02:48.077Z,6.11
2023-11-07T01:02:58.202Z,6.15
2023-11-07T01:03:08.132Z,6.13
2023-11-07T01:03:18.095Z,6.13
2023-11-07T01:03:28.129Z,6.11
2023-11-07T01:03:38.103Z,6.13
2023-11-07T01:03:48.151Z,6.15
2023-11-07T01:03:58.290Z,6.15
2023-11-07T01:04:08.316Z,6.15
2023-11-07T01:04:18.144Z,6.15
2023-11-07T01:04:28.084Z,6.13
2023-11-07T01:04:38.105Z,6.15
2023-11-07T01:04:48.121Z,6.15
2023-11-07T01:05:08.157Z,6.13
2023-11-07T01:05:18.199Z,6.15
2023-11-07T01:05:28.279Z,6.13
2023-11-07T01:05:38.166Z,6.15
2023-11-07T01:05:48.118Z,6.16
2023-11-07T01:05:58.103Z,6.16
2023-11-07T01:06:08.119Z,6.13
2023-11-07T01:06:18.120Z,6.16
2023-11-07T01:06:28.127Z,6.13
2023-11-07T01:06:38.115Z,6.15
2023-11-07T01:06:48.074Z,6.13
2023-11-07T01:06:58.043Z,6.13
2023-11-07T01:07:08.037Z,6.13
2023-11-07T01:07:18.032Z,6.13
2023-11-07T01:07:28.045Z,6.15
2023-11-07T01:07:38.035Z,6.15
2023-11-07T01:07:48.039Z,6.15
2023-11-07T01:07:58.057Z,6.13
2023-11-07T01:08:08.049Z,6.15
2023-11-07T01:08:18.049Z,6.15
2023-11-07T01:08:28.059Z,6.15
2023-11-07T01:08:38.057Z,6.15
2023-11-07T01:08:48.071Z,6.15
2023-11-07T01:09:08.081Z,6.15
2023-11-07T01:09:18.095Z,6.13
2023-11-07T01:09:28.049Z,6.16
2023-11-07T01:09:38.045Z,6.16
2023-11-07T01:09:48.049Z,6.15
2023-11-07T01:09:58.052Z,6.15
2023-11-07T01:10:08.055Z,6.15
2023-11-07T01:10:28.059Z,6.15
2023-11-07T01:10:38.060Z,6.16
2023-11-07T01:10:48.057Z,6.15
2023-11-07T01:10:58.057Z,6.16
2023-11-07T01:11:08.060Z,6.15
2023-11-07T01:11:18.067Z,6.16
2023-11-07T01:11:28.105Z,6.16
2023-11-07T01:11:38.142Z,6.15
2023-11-07T01:11:48.064Z,6.15
2023-11-07T01:11:58.061Z,6.18
2023-11-07T01:12:08.118Z,6.15
2023-11-07T01:12:28.065Z,6.16
2023-11-07T01:12:38.080Z,6.15
2023-11-07T01:12:48.077Z,6.15
2023-11-07T01:12:58.082Z,6.15
2023-11-07T01:13:08.066Z,6.16
2023-11-07T01:13:18.093Z,6.15
2023-11-07T01:13:28.064Z,6.15
2023-11-07T01:13:38.067Z,6.16
2023-11-07T01:13:48.081Z,6.16
2023-11-07T01:14:08.074Z,6.16
2023-11-07T01:14:18.069Z,6.16
2023-11-07T01:14:28.113Z,6.16
2023-11-07T01:14:38.085Z,6.15
2023-11-07T01:14:48.091Z,6.15
2023-11-07T01:14:58.231Z,6.15
2023-11-07T01:15:08.110Z,6.16
2023-11-07T01:15:18.093Z,6.15
2023-11-07T01:15:28.085Z,6.18
2023-11-07T01:15:38.079Z,6.16
2023-11-07T01:15:48.089Z,6.15
2023-11-07T01:16:08.091Z,6.15
2023-11-07T01:16:18.095Z,6.15
2023-11-07T01:16:28.096Z,6.13
2023-11-07T01:16:38.079Z,6.16
2023-11-07T01:16:48.106Z,6.16
2023-11-07T01:16:58.085Z,6.15
2023-11-07T01:17:08.089Z,6.15
2023-11-07T01:17:18.135Z,6.15
2023-11-07T01:17:28.319Z,6.16
2023-11-07T01:17:48.209Z,6.16
2023-11-07T01:17:58.189Z,6.16
2023-11-07T01:18:08.227Z,6.15
2023-11-07T01:18:18.252Z,6.16
2023-11-07T01:18:28.195Z,6.13
2023-11-07T01:18:38.206Z,6.15
2023-11-07T01:18:48.292Z,6.15
2023-11-07T01:19:08.359Z,6.16
2023-11-07T01:19:18.277Z,6.15
2023-11-07T01:19:28.169Z,6.15
2023-11-07T01:19:38.101Z,6.15
2023-11-07T01:19:48.097Z,6.13
2023-11-07T01:19:58.109Z,6.15
2023-11-07T01:20:18.108Z,6.15
2023-11-07T01:20:28.138Z,6.15
2023-11-07T01:20:38.107Z,6.15
2023-11-07T01:20:48.135Z,6.13
2023-11-07T01:20:58.152Z,6.15
2023-11-07T01:21:08.181Z,6.15
2023-11-07T01:21:18.106Z,6.15
2023-11-07T01:21:28.110Z,6.11
2023-11-07T01:21:38.111Z,6.15
2023-11-07T01:21:48.112Z,6.13
2023-11-07T01:21:58.107Z,6.15
2023-11-07T01:22:08.109Z,6.15
2023-11-07T01:22:18.119Z,6.13
2023-11-07T01:22:28.116Z,6.13
2023-11-07T01:22:38.101Z,6.15
2023-11-07T01:22:58.128Z,6.13
2023-11-07T01:23:08.104Z,6.15
2023-11-07T01:23:18.130Z,6.15
2023-11-07T01:23:28.128Z,6.13
2023-11-07T01:23:38.188Z,6.15
2023-11-07T01:23:48.129Z,6.13
2023-11-07T01:24:08.124Z,6.13
2023-11-07T01:24:18.127Z,6.11
2023-11-07T01:24:28.116Z,6.13
2023-11-07T01:24:38.113Z,6.13
2023-11-07T01:24:48.130Z,6.15
2023-11-07T01:24:58.126Z,6.13
2023-11-07T01:25:08.120Z,6.13
2023-11-07T01:25:28.117Z,6.11
2023-11-07T01:25:38.122Z,6.11
2023-11-07T01:25:48.116Z,6.11
2023-11-07T01:25:58.116Z,6.11
2023-11-07T01:26:08.134Z,6.11
2023-11-07T01:26:18.145Z,6.13
2023-11-07T01:26:28.162Z,6.11
2023-11-07T01:26:38.136Z,6.11
2023-11-07T01:26:48.171Z,6.11
2023-11-07T01:26:58.167Z,6.11
2023-11-07T01:27:08.162Z,6.11
2023-11-07T01:27:28.123Z,6.11
2023-11-07T01:27:38.157Z,6.10
2023-11-07T01:27:48.133Z,6.11
2023-11-07T01:27:58.143Z,6.11
2023-11-07T01:28:08.136Z,6.13
2023-11-07T01:28:18.131Z,6.13
2023-11-07T01:28:28.134Z,6.11
2023-11-07T01:28:38.144Z,6.11
2023-11-07T01:28:48.139Z,6.11
2023-11-07T01:29:08.144Z,6.13
2023-11-07T01:29:18.135Z,6.13
2023-11-07T01:29:28.200Z,6.11
2023-11-07T01:29:38.145Z,6.11
2023-11-07T01:29:48.195Z,6.10
2023-11-07T01:29:58.185Z,6.13
2023-11-07T01:30:08.157Z,6.10
2023-11-07T01:30:18.146Z,6.11
2023-11-07T01:30:28.144Z,6.13
2023-11-07T01:30:38.136Z,6.13
2023-11-07T01:30:48.142Z,6.11
2023-11-07T01:30:58.144Z,6.13
2023-11-07T01:31:08.148Z,6.13
2023-11-07T01:31:18.152Z,6.13
2023-11-07T01:31:38.160Z,6.13
2023-11-07T01:31:48.168Z,6.13
2023-11-07T01:31:58.143Z,6.13
2023-11-07T01:32:08.152Z,6.13
2023-11-07T01:32:18.153Z,6.11
2023-11-07T01:32:28.226Z,6.11
2023-11-07T01:32:38.402Z,6.11
2023-11-07T01:32:48.289Z,6.11
2023-11-07T01:32:58.288Z,6.13
2023-11-07T01:33:18.266Z,6.13
2023-11-07T01:33:28.254Z,6.11
2023-11-07T01:33:38.285Z,6.13
2023-11-07T01:33:48.257Z,6.11
2023-11-07T01:33:58.243Z,6.11
2023-11-07T01:34:08.308Z,6.13
2023-11-07T01:34:18.192Z,6.11
2023-11-07T01:34:28.188Z,6.11
2023-11-07T01:34:38.187Z,6.11
2023-11-07T01:34:48.158Z,6.11
2023-11-07T01:34:58.161Z,6.11
2023-11-07T01:35:08.247Z,6.11
2023-11-07T01:35:28.214Z,6.11
2023-11-07T01:35:38.194Z,6.13
2023-11-07T01:35:48.184Z,6.13
2023-11-07T01:35:58.233Z,6.13
2023-11-07T01:36:08.216Z,6.11
2023-11-07T01:36:18.166Z,6.11
2023-11-07T01:36:28.209Z,6.11
2023-11-07T01:36:38.168Z,6.11
2023-11-07T01:36:48.164Z,6.11
2023-11-07T01:36:58.181Z,6.10
2023-11-07T01:37:08.179Z,6.10
2023-11-07T01:37:18.200Z,6.11
2023-11-07T01:37:28.165Z,6.10
2023-11-07T01:37:38.180Z,6.11
2023-11-07T01:37:48.169Z,6.11
2023-11-07T01:37:58.191Z,6.13
2023-11-07T01:38:08.173Z,6.11
2023-11-07T01:38:18.177Z,6.11
2023-11-07T01:38:28.292Z,6.13
2023-11-07T01:38:48.234Z,6.11
2023-11-07T01:38:58.207Z,6.11
2023-11-07T01:39:08.183Z,6.10
2023-11-07T01:39:18.175Z,6.10
2023-11-07T01:39:28.174Z,6.10
2023-11-07T01:39:38.177Z,6.11
2023-11-07T01:39:48.181Z,6.11
2023-11-07T01:39:58.184Z,6.11
2023-11-07T01:40:08.173Z,6.11
2023-11-07T01:40:28.173Z,6.10
2023-11-07T01:40:38.190Z,6.10
2023-11-07T01:40:48.185Z,6.10
2023-11-07T01:40:58.186Z,6.10
2023-11-07T01:41:08.193Z,6.10
2023-11-07T01:41:18.186Z,6.08
2023-11-07T01:41:28.372Z,6.10
2023-11-07T01:41:38.191Z,6.10
2023-11-07T01:41:58.237Z,6.10
2023-11-07T01:42:08.201Z,6.10
2023-11-07T01:42:18.192Z,6.07
2023-11-07T01:42:28.185Z,6.08
2023-11-07T01:42:38.203Z,6.08
2023-11-07T01:42:48.209Z,6.08
2023-11-07T01:42:58.197Z,6.07
2023-11-07T01:43:08.185Z,6.08
2023-11-07T01:43:18.198Z,6.07
2023-11-07T01:43:38.184Z,6.07
2023-11-07T01:43:48.182Z,6.07
2023-11-07T01:43:58.187Z,6.07
2023-11-07T01:44:08.195Z,6.07
2023-11-07T01:44:18.179Z,6.08
2023-11-07T01:44:28.392Z,6.08
2023-11-07T01:44:48.257Z,6.08
2023-11-07T01:44:58.228Z,6.08
2023-11-07T01:45:08.228Z,6.08
2023-11-07T01:45:18.218Z,6.10
2023-11-07T01:45:28.196Z,6.08
2023-11-07T01:45:38.195Z,6.08
2023-11-07T01:45:48.190Z,6.10
2023-11-07T01:45:58.195Z,6.10
2023-11-07T01:46:08.190Z,6.10
2023-11-07T01:46:18.198Z,6.10
2023-11-07T01:46:28.202Z,6.08
2023-11-07T01:46:38.200Z,6.10
2023-11-07T01:46:48.199Z,6.08
2023-11-07T01:46:58.196Z,6.10
2023-11-07T01:47:08.181Z,6.08
2023-11-07T01:47:18.214Z,6.08
2023-11-07T01:47:28.227Z,6.08
2023-11-07T01:47:38.321Z,6.10
2023-11-07T01:47:48.267Z,6.10
2023-11-07T01:47:58.273Z,6.11
2023-11-07T01:48:08.354Z,6.10
2023-11-07T01:48:18.303Z,6.10
2023-11-07T01:48:38.308Z,6.11
2023-11-07T01:48:48.356Z,6.10
2023-11-07T01:48:58.378Z,6.11
2023-11-07T01:49:08.257Z,6.11
2023-11-07T01:49:18.216Z,6.10
2023-11-07T01:49:28.254Z,6.10
2023-11-07T01:49:38.231Z,6.10
2023-11-07T01:49:48.215Z,6.11
2023-11-07T01:49:58.209Z,6.11
2023-11-07T01:50:08.214Z,6.13
2023-11-07T01:50:18.206Z,6.11
2023-11-07T01:50:38.237Z,6.10
2023-11-07T01:50:48.217Z,6.13
2023-11-07T01:50:58.249Z,6.11
2023-11-07T01:51:08.252Z,6.11
2023-11-07T01:51:18.213Z,6.10
2023-11-07T01:51:28.217Z,6.11
2023-11-07T01:51:38.233Z,6.10
2023-11-07T01:51:48.219Z,6.11
2023-11-07T01:51:58.217Z,6.11
2023-11-07T01:52:08.217Z,6.10
2023-11-07T01:52:18.233Z,6.13
2023-11-07T01:52:28.237Z,6.11
2023-11-07T01:52:48.222Z,6.10
2023-11-07T01:52:58.231Z,6.11
2023-11-07T01:53:08.242Z,6.11
2023-11-07T01:53:18.226Z,6.08
2023-11-07T01:53:28.235Z,6.11
2023-11-07T01:53:38.258Z,6.10
2023-11-07T01:53:48.268Z,6.10
2023-11-07T01:54:08.225Z,6.10
2023-11-07T01:54:18.229Z,6.11
2023-11-07T01:54:28.239Z,6.13
2023-11-07T01:54:38.272Z,6.10
2023-11-07T01:54:48.232Z,6.13
2023-11-07T01:54:58.225Z,6.13
2023-11-07T01:55:08.233Z,6.11
2023-11-07T01:55:18.249Z,6.11
2023-11-07T01:55:28.239Z,6.13
2023-11-07T01:55:38.237Z,6.11
2023-11-07T01:55:48.241Z,6.11
2023-11-07T01:55:58.243Z,6.11
2023-11-07T01:56:08.233Z,6.11
2023-11-07T01:56:18.236Z,6.11
2023-11-07T01:56:28.240Z,6.10
2023-11-07T01:56:38.279Z,6.11
2023-11-07T01:56:48.287Z,6.11
2023-11-07T01:56:58.314Z,6.11
2023-11-07T01:57:08.297Z,6.11
2023-11-07T01:57:28.245Z,6.10
2023-11-07T01:57:38.265Z,6.11
2023-11-07T01:57:48.257Z,6.13
2023-11-07T01:57:58.251Z,6.13
2023-11-07T01:58:08.242Z,6.11
2023-11-07T01:58:18.243Z,6.11
2023-11-07T01:58:28.244Z,6.10
2023-11-07T01:58:48.261Z,6.11
2023-11-07T01:58:58.260Z,6.11
2023-11-07T01:59:08.251Z,6.10
2023-11-07T01:59:18.260Z,6.11
2023-11-07T01:59:28.253Z,6.11
2023-11-07T01:59:38.299Z,6.11
2023-11-07T01:59:48.295Z,6.11
2023-11-07T01:59:58.265Z,6.10
2023-11-07T02:00:08.296Z,6.11
2023-11-07T02:00:18.256Z,6.11
2023-11-07T02:00:28.264Z,6.13
2023-11-07T02:00:38.255Z,6.11
2023-11-07T02:00:48.252Z,6.11
2023-11-07T02:00:58.259Z,6.13
2023-11-07T02:01:08.257Z,6.11
2023-11-07T02:01:18.272Z,6.11
2023-11-07T02:01:38.258Z,6.11
2023-11-07T02:01:48.262Z,6.11
2023-11-07T02:01:58.278Z,6.10
2023-11-07T02:02:08.259Z,6.10
2023-11-07T02:02:18.266Z,6.10
2023-11-07T02:02:28.282Z,6.13
2023-11-07T02:02:38.315Z,6.11
2023-11-07T02:02:48.396Z,6.11
2023-11-07T02:02:58.364Z,6.11
2023-11-07T02:03:18.344Z,6.11
2023-11-07T02:03:28.336Z,6.11
2023-11-07T02:03:38.355Z,6.11
2023-11-07T02:03:48.372Z,6.10
2023-11-07T02:03:58.316Z,6.08
2023-11-07T02:04:08.406Z,6.08
2023-11-07T02:04:28.306Z,6.08
2023-11-07T02:04:38.397Z,6.08
2023-11-07T02:04:48.966Z,6.08
2023-11-07T02:04:58.300Z,6.08
2023-11-07T02:05:08.316Z,6.08
2023-11-07T02:05:18.287Z,6.08
2023-11-07T02:05:28.266Z,6.10
2023-11-07T02:05:48.317Z,6.11
2023-11-07T02:05:58.430Z,6.11
2023-11-07T02:06:08.350Z,6.10
2023-11-07T02:06:18.296Z,6.10
2023-11-07T02:06:28.273Z,6.11
2023-11-07T02:06:38.284Z,6.10
2023-11-07T02:06:58.285Z,6.11
2023-11-07T02:07:08.281Z,6.10
2023-11-07T02:07:18.297Z,6.08
2023-11-07T02:07:28.290Z,6.10
2023-11-07T02:07:38.313Z,6.10
2023-11-07T02:07:48.286Z,6.11
2023-11-07T02:07:58.304Z,6.10
2023-11-07T02:08:08.284Z,6.10
2023-11-07T02:08:18.295Z,6.10
2023-11-07T02:08:28.289Z,6.10
2023-11-07T02:08:38.314Z,6.10
2023-11-07T02:08:48.304Z,6.11
2023-11-07T02:09:08.325Z,6.11
2023-11-07T02:09:18.293Z,6.10
2023-11-07T02:09:28.291Z,6.10
2023-11-07T02:09:38.297Z,6.11
2023-11-07T02:09:48.306Z,6.11
2023-11-07T02:09:58.294Z,6.10
2023-11-07T02:10:08.294Z,6.11
2023-11-07T02:10:18.290Z,6.11
2023-11-07T02:10:28.291Z,6.10
2023-11-07T02:10:38.304Z,6.11
2023-11-07T02:10:48.300Z,6.11
2023-11-07T02:10:58.302Z,6.10
2023-11-07T02:11:08.295Z,6.11
2023-11-07T02:11:18.307Z,6.11
2023-11-07T02:11:28.298Z,6.10
2023-11-07T02:11:38.313Z,6.10
2023-11-07T02:11:48.381Z,6.10
2023-11-07T02:11:58.332Z,6.10
2023-11-07T02:12:08.349Z,6.10
2023-11-07T02:12:18.300Z,6.10
2023-11-07T02:12:28.316Z,6.10
2023-11-07T02:12:38.316Z,6.10
2023-11-07T02:12:48.312Z,6.10
2023-11-07T02:12:58.325Z,6.08
2023-11-07T02:13:08.306Z,6.08
2023-11-07T02:13:18.325Z,6.08
2023-11-07T02:13:28.314Z,6.08
2023-11-07T02:13:38.317Z,6.08
2023-11-07T02:13:48.328Z,6.07
2023-11-07T02:14:08.344Z,6.08
2023-11-07T02:14:18.329Z,6.08
2023-11-07T02:14:28.335Z,6.07
2023-11-07T02:14:38.469Z,6.10
2023-11-07T02:14:48.421Z,6.10
2023-11-07T02:14:58.398Z,6.08
2023-11-07T02:15:08.353Z,6.08
2023-11-07T02:15:18.351Z,6.08
2023-11-07T02:15:28.345Z,6.08
2023-11-07T02:15:48.309Z,6.10
2023-11-07T02:15:58.328Z,6.10
2023-11-07T02:16:08.324Z,6.08
2023-11-07T02:16:18.320Z,6.10
2023-11-07T02:16:28.318Z,6.10
2023-11-07T02:16:38.352Z,6.07
2023-11-07T02:16:48.326Z,6.08
2023-11-07T02:16:58.335Z,6.08
2023-11-07T02:17:08.347Z,6.08
2023-11-07T02:17:18.328Z,6.10
2023-11-07T02:17:28.361Z,6.10
2023-11-07T02:17:38.401Z,6.10
2023-11-07T02:17:48.412Z,6.10
2023-11-07T02:17:58.416Z,6.10
2023-11-07T02:18:08.446Z,6.08
2023-11-07T02:18:18.439Z,6.10
2023-11-07T02:18:28.410Z,6.10
2023-11-07T02:18:38.405Z,6.08
2023-11-07T02:18:48.417Z,6.10
2023-11-07T02:19:08.359Z,6.10
2023-11-07T02:19:18.353Z,6.08
2023-11-07T02:19:28.332Z,6.08
2023-11-07T02:19:38.332Z,6.08
2023-11-07T02:19:48.449Z,6.10
2023-11-07T02:19:58.332Z,6.11
2023-11-07T02:20:08.348Z,6.10
2023-11-07T02:20:18.345Z,6.10
2023-11-07T02:20:28.333Z,6.10
2023-11-07T02:20:48.384Z,6.08
2023-11-07T02:20:58.346Z,6.08
2023-11-07T02:21:08.378Z,6.08
2023-11-07T02:21:18.340Z,6.08
2023-11-07T02:21:28.354Z,6.10
2023-11-07T02:21:38.345Z,6.10
2023-11-07T02:21:48.357Z,6.08
2023-11-07T02:21:58.340Z,6.08
2023-11-07T02:22:08.345Z,6.10
2023-11-07T02:22:18.349Z,6.10
2023-11-07T02:22:28.345Z,6.08
2023-11-07T02:22:38.356Z,6.10
2023-11-07T02:22:48.345Z,6.08
2023-11-07T02:22:58.389Z,6.08
2023-11-07T02:23:08.361Z,6.10
2023-11-07T02:23:18.352Z,6.08
2023-11-07T02:23:28.352Z,6.10